createdAt,value
2022-09-23T00:06:52.023Z,100708.70
2022-09-23T00:23:40.790Z,100702.61
2022-09-23T00:40:28.712Z,100696.36
2022-09-23T00:57:20.268Z,100694.67
2022-09-23T01:14:26.527Z,100692.43
2022-09-23T01:31:21.142Z,100685.63
2022-09-23T01:48:15.967Z,100680.71
2022-09-23T02:05:08.712Z,100677.88
2022-09-23T02:22:01.357Z,100671.30
2022-09-23T02:38:54.422Z,100673.58
2022-09-23T02:55:43.100Z,100676.38
2022-09-23T03:12:37.120Z,100677.07
2022-09-23T03:29:25.418Z,100673.38
2022-09-23T03:46:15.462Z,100670.29
2022-09-23T04:03:05.310Z,100663.91
2022-09-23T04:19:56.426Z,100665.18
2022-09-23T04:36:44.797Z,100671.27
2022-09-23T04:53:32.823Z,100675.60
2022-09-23T05:10:21.190Z,100667.29
2022-09-23T05:27:09.786Z,100667.67
2022-09-23T05:44:00.075Z,100669.23
2022-09-23T06:00:49.604Z,100679.86
2022-09-23T06:17:37.900Z,100685.16
2022-09-23T06:34:27.328Z,100680.73
2022-09-23T06:51:19.512Z,100679.19
2022-09-23T07:08:10.610Z,100677.48
2022-09-23T07:24:58.429Z,100682.58
2022-09-23T07:41:46.548Z,100677.03
2022-09-23T07:58:35.329Z,100671.85
2022-09-23T08:15:23.551Z,100667.80
2022-09-23T08:32:12.462Z,100660.98
2022-09-23T08:49:02.661Z,100654.34
2022-09-23T09:05:54.382Z,100651.93
2022-09-23T09:22:51.297Z,100638.83
2022-09-23T09:39:39.680Z,100627.27
2022-09-23T09:56:35.858Z,100617.42
2022-09-23T10:13:27.507Z,100603.69
2022-09-23T10:30:25.549Z,100592.48
2022-09-23T10:47:23.254Z,100565.89
2022-09-23T11:04:53.034Z,100566.17
2022-09-23T11:22:01.473Z,100560.12
2022-09-23T11:38:53.396Z,100547.66
2022-09-23T11:55:55.939Z,100533.84
2022-09-23T12:12:53.152Z,100524.77
2022-09-23T12:29:43.246Z,100506.58
2022-09-23T12:46:31.558Z,100494.34
2022-09-23T13:03:37.274Z,100486.20
2022-09-23T13:20:40.947Z,100477.61
2022-09-23T13:37:46.531Z,100475.77
2022-09-23T13:54:37.700Z,100453.27
2022-09-23T14:11:33.356Z,100444.66
2022-09-23T14:28:25.684Z,100436.33
2022-09-23T14:45:18.601Z,100431.11
2022-09-23T15:02:42.843Z,100424.52
2022-09-23T15:19:32.468Z,100415.56
2022-09-23T15:36:23.128Z,100408.75
2022-09-23T15:53:12.610Z,100403.27
2022-09-23T16:10:00.606Z,100408.19
2022-09-23T16:26:49.589Z,100413.40
2022-09-23T16:43:41.270Z,100414.92
2022-09-23T17:00:42.896Z,100413.55
2022-09-23T17:17:31.400Z,100407.27
2022-09-23T17:34:20.152Z,100407.89
2022-09-23T17:51:11.240Z,100415.58
2022-09-23T18:08:01.872Z,100415.87
2022-09-23T18:24:53.234Z,100421.02
2022-09-23T18:41:41.409Z,100428.77
2022-09-23T18:58:29.952Z,100428.26
2022-09-23T19:15:17.940Z,100428.66
2022-09-23T19:32:06.944Z,100428.95
2022-09-23T19:48:54.981Z,100437.88
2022-09-23T20:05:43.272Z,100431.35
2022-09-23T20:22:33.661Z,100430.74
2022-09-23T20:39:21.761Z,100419.71
2022-09-23T20:56:10.268Z,100413.30
2022-09-23T21:12:58.440Z,100413.74
2022-09-23T21:29:46.531Z,100411.34
2022-09-23T21:46:35.521Z,100411.02
2022-09-23T22:03:23.720Z,100411.69
2022-09-23T22:20:12.796Z,100410.30
2022-09-23T22:37:01.659Z,100408.14
2022-09-23T22:53:49.768Z,100399.71
2022-09-23T23:10:39.657Z,100389.09
2022-09-23T23:27:28.066Z,100371.65
2022-09-23T23:44:16.375Z,100371.20
